x

Halibut Bank (46146) Wave Buoy

5:00 - Wed 18th Jan 2017 All times are PST. -8 hours from GMT.

  • Sig Wave height 3.3ft
  • Peak Period 4s
  • Wind
    25mph, 29mph gusts
  • Sea Temp 45°f
  • Aire Temp 47°f
  • Sea Pressure 991.3mb
  • Halibut Bank
  • Halibut Bank

More Historic Weather Station data

Upgrade to MSW Pro to gain access to the past 30 days of data for over 8000 Wavebouys and Weather Stations around the globe.

Join Pro

Comparision Forecast

View Surf forecast
   
mié 01/18 5:00 3.5ft 4s 25 29 mph 991.3mb 45f 47f
4:00 3.5ft 4s 27 31 mph 991.9mb 45f 48f
3:00 4.5ft 5s 27 31 mph 992.6mb 45f 48f
2:00 4.5ft 5s 25 27 mph 993.5mb 45f 47f
1:00 4.5ft 5s 27 31 mph 993.8mb 45f 47f
12:00 4.5ft 6s 27 34 mph 993.5mb 45f 47f
mar 01/17 11:00 4.5ft 5s 27 31 mph 993.4mb 45f 47f
10:00 5ft 5s 27 34 mph 992.8mb 45f 47f
9:00 4.5ft 5s 29 36 mph 992.4mb 45f 47f
8:00 3.5ft 4s 29 34 mph 992.7mb 45f 47f
7:00 3.5ft 4s 27 34 mph 993.2mb 45f 47f
6:00 3.5ft 4s 27 34 mph 993.5mb 45f 48f
5:00 4.5ft 5s 25 29 mph 995.3mb 45f 47f
4:00 4.5ft 4s 29 34 mph 996.4mb 45f 47f
3:00 4ft 4s 31 36 mph 997.4mb 45f 46f
2:00 3.5ft 4s 29 34 mph 998.9mb 45f 47f
1:00 4ft 4s 31 40 mph 1000mb 45f 47f
12:00 3.5ft 4s 29 38 mph 1001.4mb 45f 48f
11:00 3.5ft 4s 27 34 mph 1002.3mb 45f 48f
10:00 3.5ft 4s 27 34 mph 1002.1mb 45f 47f
9:00 3.5ft 4s 27 31 mph 1002.5mb 45f 47f
8:00 3.5ft 4s 31 38 mph 1002.5mb 44f 47f
7:00 3.5ft 4s 29 34 mph 1002.8mb 44f 47f
6:00 2.5ft 4s 27 31 mph 1004.2mb 44f 47f
5:00 2.5ft 4s 29 38 mph 1004.1mb 44f 46f
4:00 2ft 3s 27 31 mph 1006.7mb 44f 46f
3:00 1.3ft 3s 20 25 mph 1008.8mb 44f 46f
2:00 1.3ft 3s 11 16 mph 1010.7mb 44f 45f
1:00 1.6ft 3s 11 13 mph 1010.9mb 44f 46f
12:00 1.6ft 4s 13 16 mph 1011.5mb 44f 45f
lun 01/16 11:00 2.5ft 4s 22 29 mph 1011.3mb 45f 47f
10:00 2.5ft 4s 22 27 mph 1012.3mb 45f 46f
9:00 2.5ft 3s 25 29 mph 1012mb 45f 45f
8:00 2.5ft 3s 27 31 mph 1012.4mb 44f 45f
7:00 1.6ft 3s 22 27 mph 1012.8mb 44f 44f
6:00 1.3ft 3s 18 20 mph 1014.2mb 44f 44f
5:00 1.3ft 3s 13
mph
1015.2mb 44f 44f
4:00 1.6ft 3s 13 18 mph 1014.7mb 44f 43f
3:00 1.3ft 3s 18 20 mph 1014.8mb 44f 43f
2:00 1.6ft 3s 18 20 mph 1016mb 44f 42f
1:00 1.3ft 3s 18 20 mph 1017.4mb 44f 42f
12:00 1.6ft 3s 18 22 mph 1018.9mb 44f 42f
11:00 1.6ft 3s 16 20 mph 1020.2mb 44f 41f
10:00 1.6ft 3s 18 22 mph 1020.7mb 44f 41f
9:00 1ft 3s 18 20 mph 1020.9mb 44f 41f
8:00 1ft 3s 13 16 mph 1021.4mb 44f 41f
7:00 0.7ft 2s 11 13 mph 1021.8mb 44f 41f
6:00 1ft 3s 11 13 mph 1022.7mb 44f 41f
5:00 1ft 2s 11 13 mph 1023.4mb 44f 41f
4:00 0.7ft 2s 13 16 mph 1024.2mb 44f 40f
3:00 0.7ft 3s 13 16 mph 1023.8mb 44f 40f
2:00 1ft 3s 11 13 mph 1024.7mb 44f 41f
1:00 1ft 3s 11 13 mph 1025.2mb 45f 41f
12:00 1ft 3s 16 18 mph 1025.4mb 45f 41f
dom 01/15 11:00 0.7ft 2s 16 18 mph 1025.8mb 44f 41f
10:00 0.7ft 2s 13
mph
1026mb 44f 41f
9:00 0.7ft 6s 11 13 mph 1026.3mb 44f 41f
8:00 0.3ft 4s 11 13 mph 1025.7mb 44f 40f
7:00 0.3ft 6s 7 9 mph 1026.2mb 45f 40f
6:00 0.3ft 6s 7
mph
1026mb 44f 40f
5:00 0.3ft 6s 4 7 mph 1025.9mb 44f 40f
4:00 0.3ft 3s 4
mph
1025.8mb 45f 40f
3:00 0.3ft 3s 2
mph
1026mb 45f 40f
2:00 0.3ft 6s  -  2 mph 1025.9mb 45f 40f
1:00 0.3ft 6s 2 4 mph 1026.1mb 45f 40f
12:00 0.3ft 6s 4
mph
1026.4mb 44f 39f
11:00 0.3ft 2s 7
mph
1026.5mb 45f 39f
10:00 0.3ft 5s 7 9 mph 1026.5mb 44f 39f
9:00 0.3ft 2s 9
mph
1026.2mb 44f 39f
8:00 0.3ft 4s 7 9 mph 1025.7mb 44f 39f
7:00 0.3ft 2s 7 9 mph 1025.4mb 44f 39f
6:00 0.3ft 3s 2 4 mph 1025.7mb 44f 40f
5:00 0.3ft 3s 4
mph
1026.1mb 44f 39f
4:00 0.7ft 2s 4
mph
1026.3mb 44f 39f
3:00 0.7ft 2s 7 9 mph 1026.7mb 44f 40f
2:00 0.3ft 2s 9
mph
1026.7mb 43f 40f
1:00 0.3ft 2s 13 16 mph 1026.7mb 43f 39f
12:00 0.3ft 2s 7 9 mph 1026.6mb 43f 39f
sáb 01/14 11:00 0.3ft 6s 2
mph
1026.3mb 43f 38f
10:00 0.3ft 2s 4 7 mph 1026.2mb 43f 39f
9:00 0.3ft 5s 9 11 mph 1026.1mb 43f 38f
8:00 0.3ft 6s 4 7 mph 1025.9mb 43f 39f
7:00 0.3ft 6s 4
mph
1026.2mb 43f 39f
6:00 0.3ft 2s 4 7 mph 1026.2mb 42f 39f
5:00 0.3ft 7s 4 7 mph 1026.8mb 42f 38f
4:00 0.3ft 3s 4
mph
1027.1mb 42f 38f
3:00 0.3ft 3s 2
mph
1027mb 42f 38f